createdAt,value
2023-02-20T00:00:47.729Z,76.94
2023-02-20T00:02:20.786Z,77.23
2023-02-20T00:03:52.447Z,77.05
2023-02-20T00:05:24.379Z,77.04
2023-02-20T00:06:56.252Z,76.94
2023-02-20T00:08:27.910Z,77.27
2023-02-20T00:09:59.548Z,77.45
2023-02-20T00:11:31.256Z,77.02
2023-02-20T00:13:08.383Z,76.48
2023-02-20T00:14:40.010Z,76.94
2023-02-20T00:16:11.949Z,76.98
2023-02-20T00:17:47.355Z,77.12
2023-02-20T00:19:19.071Z,76.91
2023-02-20T00:20:50.741Z,76.79
2023-02-20T00:22:22.529Z,77.46
2023-02-20T00:23:54.125Z,77.60
2023-02-20T00:25:25.810Z,77.70
2023-02-20T00:26:57.440Z,77.63
2023-02-20T00:28:30.195Z,77.59
2023-02-20T00:30:01.872Z,77.01
2023-02-20T00:31:33.488Z,77.05
2023-02-20T00:33:06.640Z,77.58
2023-02-20T00:34:38.400Z,77.77
2023-02-20T00:36:14.940Z,78.06
2023-02-20T00:37:46.944Z,77.89
2023-02-20T00:39:18.629Z,77.85
2023-02-20T00:40:50.538Z,77.69
2023-02-20T00:42:22.185Z,78.10
2023-02-20T00:43:53.782Z,78.32
2023-02-20T00:45:25.403Z,78.27
2023-02-20T00:46:57.085Z,77.08
2023-02-20T00:48:30.049Z,78.19
2023-02-20T00:50:01.781Z,78.00
2023-02-20T00:51:35.671Z,78.19
2023-02-20T00:53:07.282Z,78.00
2023-02-20T00:54:38.887Z,77.99
2023-02-20T00:56:11.209Z,78.32
2023-02-20T00:57:43.341Z,78.55
2023-02-20T00:59:15.111Z,78.49
2023-02-20T01:00:46.734Z,77.85
2023-02-20T01:02:18.361Z,77.83
2023-02-20T01:03:51.327Z,77.81
2023-02-20T01:05:23.432Z,78.27
2023-02-20T01:06:55.114Z,77.60
2023-02-20T01:08:26.736Z,77.43
2023-02-20T01:09:58.335Z,77.77
2023-02-20T01:11:29.995Z,77.72
2023-02-20T01:13:01.586Z,77.97
2023-02-20T01:14:33.252Z,77.95
2023-02-20T01:16:05.195Z,77.93
2023-02-20T01:17:36.830Z,77.77
2023-02-20T01:19:10.001Z,78.14
2023-02-20T01:20:41.623Z,78.32
2023-02-20T01:22:13.302Z,78.34
2023-02-20T01:23:44.919Z,78.04
2023-02-20T01:25:16.780Z,78.21
2023-02-20T01:26:51.165Z,77.74
2023-02-20T01:28:22.811Z,77.93
2023-02-20T01:29:54.449Z,77.76
2023-02-20T01:31:26.227Z,78.21
2023-02-20T01:32:57.860Z,77.90
2023-02-20T01:34:30.883Z,77.82
2023-02-20T01:36:02.514Z,77.94
2023-02-20T01:37:34.188Z,77.62
2023-02-20T01:39:05.830Z,77.81
2023-02-20T01:40:37.436Z,78.48
2023-02-20T01:42:11.523Z,78.78
2023-02-20T01:43:43.089Z,78.44
2023-02-20T01:45:16.038Z,78.44
2023-02-20T01:46:51.530Z,79.41
2023-02-20T01:48:24.222Z,78.54
2023-02-20T01:49:58.574Z,79.01
2023-02-20T01:51:30.675Z,79.32
2023-02-20T01:53:04.280Z,79.41
2023-02-20T01:54:36.120Z,79.29
2023-02-20T01:56:07.923Z,78.95
2023-02-20T01:57:41.050Z,79.28
2023-02-20T01:59:12.705Z,79.23
2023-02-20T02:00:44.372Z,79.22
2023-02-20T02:02:16.143Z,79.15
2023-02-20T02:03:48.970Z,79.71
2023-02-20T02:05:22.029Z,79.16
2023-02-20T02:06:53.731Z,78.98
2023-02-20T02:08:25.389Z,79.33
2023-02-20T02:09:58.822Z,79.69
2023-02-20T02:11:30.496Z,79.80
2023-02-20T02:13:02.218Z,79.59
2023-02-20T02:14:33.841Z,80.03
2023-02-20T02:16:09.331Z,79.44
2023-02-20T02:17:55.612Z,79.27
2023-02-20T02:19:48.478Z,79.40
2023-02-20T02:21:52.797Z,79.22
2023-02-20T02:24:27.271Z,79.05
2023-02-20T02:26:00.174Z,79.37
2023-02-20T02:27:54.760Z,79.22
2023-02-20T02:30:01.974Z,80.30
2023-02-20T02:32:08.067Z,80.14
2023-02-20T02:34:03.984Z,79.56
2023-02-20T02:36:09.099Z,78.85
2023-02-20T02:37:45.204Z,79.35
2023-02-20T02:39:18.206Z,79.60
2023-02-20T02:40:52.868Z,79.45
2023-02-20T02:42:27.743Z,79.42
2023-02-20T02:44:00.452Z,79.33
2023-02-20T02:45:34.589Z,79.47
2023-02-20T02:47:07.613Z,79.40
2023-02-20T02:48:40.338Z,79.32
2023-02-20T02:50:13.790Z,79.58
2023-02-20T02:51:47.930Z,79.84
2023-02-20T02:53:20.940Z,79.43
2023-02-20T02:54:52.576Z,79.43
2023-02-20T02:56:33.873Z,79.77
2023-02-20T02:58:05.583Z,79.35
2023-02-20T02:59:37.315Z,79.86
2023-02-20T03:01:09.100Z,79.47
2023-02-20T03:02:43.132Z,79.84
2023-02-20T03:04:14.762Z,79.48
2023-02-20T03:05:48.373Z,79.40
2023-02-20T03:07:20.062Z,79.47
2023-02-20T03:08:57.996Z,79.40
2023-02-20T03:10:31.893Z,79.36
2023-02-20T03:12:03.950Z,79.36
2023-02-20T03:13:57.005Z,79.59
2023-02-20T03:15:33.290Z,79.78
2023-02-20T03:17:08.452Z,80.02
2023-02-20T03:18:40.373Z,79.88
2023-02-20T03:20:13.274Z,80.79
2023-02-20T03:21:45.835Z,80.68
2023-02-20T03:23:18.618Z,81.26
2023-02-20T03:24:56.702Z,80.41
2023-02-20T03:26:30.457Z,80.01
2023-02-20T03:28:03.595Z,80.07
2023-02-20T03:29:35.759Z,80.66
2023-02-20T03:31:09.204Z,81.13
2023-02-20T03:32:59.344Z,80.79
2023-02-20T03:34:49.502Z,80.66
2023-02-20T03:36:42.471Z,80.94
2023-02-20T03:38:33.002Z,80.67
2023-02-20T03:40:26.789Z,81.19
2023-02-20T03:42:17.251Z,81.10
2023-02-20T03:43:48.909Z,81.32
2023-02-20T03:45:23.217Z,80.50
2023-02-20T03:46:54.868Z,80.08
2023-02-20T03:48:28.409Z,80.86
2023-02-20T03:50:00.072Z,80.79
2023-02-20T03:51:50.594Z,80.84
2023-02-20T03:53:22.212Z,81.74
2023-02-20T03:54:53.901Z,82.04
2023-02-20T03:56:27.780Z,81.77
2023-02-20T03:58:00.444Z,81.24
2023-02-20T03:59:33.486Z,81.54
2023-02-20T04:01:05.373Z,81.42
2023-02-20T04:02:39.220Z,81.26
2023-02-20T04:04:12.770Z,80.95
2023-02-20T04:05:46.110Z,80.64
2023-02-20T04:07:20.873Z,80.73
2023-02-20T04:08:54.629Z,80.66
2023-02-20T04:10:28.522Z,81.24
2023-02-20T04:12:04.481Z,81.23
2023-02-20T04:13:36.287Z,81.54
2023-02-20T04:15:08.958Z,82.22
2023-02-20T04:16:49.109Z,82.68
2023-02-20T04:18:21.527Z,81.62
2023-02-20T04:19:53.195Z,80.90
2023-02-20T04:21:29.520Z,82.08
2023-02-20T04:23:02.760Z,82.11
2023-02-20T04:24:36.135Z,81.54
2023-02-20T04:26:09.145Z,82.21
2023-02-20T04:27:42.172Z,82.16
2023-02-20T04:29:13.841Z,83.44
2023-02-20T04:30:45.642Z,82.42
2023-02-20T04:32:17.372Z,82.06
2023-02-20T04:33:49.027Z,82.32
2023-02-20T04:35:20.803Z,81.69
2023-02-20T04:36:53.765Z,81.46
2023-02-20T04:38:25.530Z,82.68
2023-02-20T04:39:57.158Z,81.96
2023-02-20T04:41:29.027Z,81.32
2023-02-20T04:43:02.000Z,81.19
2023-02-20T04:44:36.827Z,82.24
2023-02-20T04:46:08.462Z,81.64
2023-02-20T04:47:40.122Z,82.47
2023-02-20T04:49:11.769Z,81.55
2023-02-20T04:50:43.393Z,81.67
2023-02-20T04:52:15.042Z,81.47
2023-02-20T04:53:46.707Z,82.18
2023-02-20T04:55:18.561Z,82.63
2023-02-20T04:56:50.560Z,81.90
2023-02-20T04:58:23.537Z,81.90
2023-02-20T04:59:55.201Z,81.93
2023-02-20T05:01:26.871Z,81.85
2023-02-20T05:02:58.678Z,81.42
2023-02-20T05:04:30.346Z,82.55
2023-02-20T05:06:02.078Z,82.21
2023-02-20T05:07:33.768Z,81.48
2023-02-20T05:09:06.550Z,81.36
2023-02-20T05:10:38.294Z,81.49
2023-02-20T05:12:10.437Z,81.38
2023-02-20T05:13:43.527Z,81.31
2023-02-20T05:15:18.395Z,80.90
2023-02-20T05:16:55.074Z,81.93
2023-02-20T05:18:30.364Z,82.66
2023-02-20T05:20:05.609Z,82.12
2023-02-20T05:22:15.718Z,81.69
2023-02-20T05:23:47.782Z,81.49
2023-02-20T05:25:21.579Z,82.00
2023-02-20T05:26:53.680Z,81.97
2023-02-20T05:28:33.494Z,82.84
2023-02-20T05:30:21.258Z,82.67
2023-02-20T05:32:04.372Z,83.08
2023-02-20T05:33:40.281Z,82.60
2023-02-20T05:35:14.819Z,83.73
2023-02-20T05:36:46.670Z,83.27
2023-02-20T05:38:25.898Z,82.56
2023-02-20T05:39:58.093Z,83.25
2023-02-20T05:41:29.919Z,83.10
2023-02-20T05:43:06.117Z,82.28
2023-02-20T05:44:38.154Z,81.85
2023-02-20T05:46:12.046Z,81.58
2023-02-20T05:47:44.066Z,81.42
2023-02-20T05:49:17.275Z,81.25
2023-02-20T05:50:50.636Z,81.58
2023-02-20T05:52:22.320Z,81.36
2023-02-20T05:53:54.318Z,81.71
2023-02-20T05:55:26.034Z,81.34
2023-02-20T05:56:57.854Z,81.19
2023-02-20T05:58:31.258Z,81.15
2023-02-20T06:00:03.517Z,81.64
2023-02-20T06:01:36.655Z,82.47
2023-02-20T06:03:08.593Z,83.46
2023-02-20T06:04:40.774Z,83.29
2023-02-20T06:06:12.805Z,82.16
2023-02-20T06:07:44.822Z,81.57
2023-02-20T06:09:17.877Z,81.31
2023-02-20T06:10:51.016Z,81.45
2023-02-20T06:12:22.871Z,82.21
2023-02-20T06:13:54.644Z,82.16
2023-02-20T06:15:26.456Z,82.11
2023-02-20T06:16:59.780Z,81.90
2023-02-20T06:18:31.751Z,81.46
2023-02-20T06:20:06.729Z,82.32
2023-02-20T06:21:40.325Z,82.08
2023-02-20T06:23:11.998Z,81.43
2023-02-20T06:24:47.819Z,81.60
2023-02-20T06:26:19.738Z,82.00
2023-02-20T06:27:51.561Z,81.89
2023-02-20T06:29:23.384Z,82.09
2023-02-20T06:31:02.150Z,81.72
2023-02-20T06:32:35.664Z,81.79
2023-02-20T06:34:07.426Z,82.37
2023-02-20T06:35:39.046Z,83.18
2023-02-20T06:37:10.699Z,82.78
2023-02-20T06:38:42.370Z,83.05
2023-02-20T06:40:14.023Z,82.36
2023-02-20T06:41:45.776Z,81.63
2023-02-20T06:43:17.511Z,82.22
2023-02-20T06:44:49.189Z,81.87
2023-02-20T06:46:22.850Z,82.76
2023-02-20T06:47:55.957Z,82.75
2023-02-20T06:49:27.705Z,82.84
2023-02-20T06:50:59.357Z,83.40
2023-02-20T06:52:31.041Z,83.08
2023-02-20T06:54:02.798Z,82.94
2023-02-20T06:55:34.439Z,82.89
2023-02-20T06:57:07.467Z,83.01
2023-02-20T06:58:39.204Z,83.08
2023-02-20T07:00:12.247Z,82.36
2023-02-20T07:01:44.022Z,82.28
2023-02-20T07:03:20.275Z,82.22
2023-02-20T07:04:52.204Z,82.51
2023-02-20T07:06:24.312Z,82.87
2023-02-20T07:07:56.280Z,83.33
2023-02-20T07:09:28.237Z,83.49
2023-02-20T07:10:59.915Z,83.76
2023-02-20T07:12:31.726Z,82.61
2023-02-20T07:14:03.582Z,83.68
2023-02-20T07:15:35.425Z,83.11
2023-02-20T07:17:07.229Z,83.26
2023-02-20T07:18:59.533Z,83.51
2023-02-20T07:20:31.897Z,83.64
2023-02-20T07:22:03.678Z,83.13
2023-02-20T07:23:35.473Z,83.29
2023-02-20T07:25:08.248Z,82.95
2023-02-20T07:26:47.211Z,82.12
2023-02-20T07:28:26.974Z,82.00
2023-02-20T07:29:58.886Z,82.78
2023-02-20T07:31:30.770Z,83.25
2023-02-20T07:33:05.705Z,82.30
2023-02-20T07:34:38.937Z,82.11
2023-02-20T07:36:11.081Z,83.81
2023-02-20T07:37:43.198Z,83.93
2023-02-20T07:39:14.934Z,83.80
2023-02-20T07:40:46.788Z,83.16
2023-02-20T07:42:18.625Z,82.14
2023-02-20T07:43:50.351Z,85.00
2023-02-20T07:45:22.351Z,84.01
2023-02-20T07:46:54.035Z,85.65
2023-02-20T07:48:25.804Z,84.69
2023-02-20T07:50:18.270Z,87.86
2023-02-20T07:52:06.094Z,86.73
2023-02-20T07:53:38.774Z,87.30
2023-02-20T07:55:27.093Z,87.86
2023-02-20T07:57:02.480Z,86.68
2023-02-20T07:58:34.711Z,87.78
2023-02-20T08:00:13.288Z,86.69
2023-02-20T08:01:49.897Z,86.66
2023-02-20T08:03:24.882Z,85.41
2023-02-20T08:05:01.185Z,86.97
2023-02-20T08:06:35.621Z,86.96
2023-02-20T08:08:11.373Z,87.32
2023-02-20T08:09:44.258Z,87.03
2023-02-20T08:11:16.352Z,87.70
2023-02-20T08:12:48.835Z,87.87
2023-02-20T08:14:22.455Z,87.29
2023-02-20T08:15:54.834Z,87.97
2023-02-20T08:17:37.229Z,87.20
2023-02-20T08:19:16.143Z,87.47
2023-02-20T08:20:49.498Z,87.04
2023-02-20T08:22:40.288Z,86.66
2023-02-20T08:24:13.409Z,85.14
2023-02-20T08:25:45.336Z,85.76
2023-02-20T08:27:17.228Z,85.57
2023-02-20T08:28:49.422Z,84.38
2023-02-20T08:30:24.120Z,84.57
2023-02-20T08:31:56.141Z,84.12
2023-02-20T08:33:50.925Z,84.23
2023-02-20T08:35:26.077Z,83.47
2023-02-20T08:36:57.856Z,83.55
2023-02-20T08:38:31.815Z,82.05
2023-02-20T08:40:06.806Z,79.98
2023-02-20T08:41:42.435Z,80.69
2023-02-20T08:43:14.270Z,81.25
2023-02-20T08:44:45.990Z,81.55
2023-02-20T08:46:17.841Z,80.13
2023-02-20T08:47:49.666Z,78.75
2023-02-20T08:49:23.191Z,80.17
2023-02-20T08:50:55.505Z,79.45
2023-02-20T08:52:27.122Z,79.35
2023-02-20T08:54:00.329Z,78.47
2023-02-20T08:55:31.967Z,78.76
2023-02-20T08:57:03.770Z,78.90
2023-02-20T08:58:35.592Z,79.42
2023-02-20T09:00:08.279Z,80.15
2023-02-20T09:01:41.040Z,80.13
2023-02-20T09:03:12.858Z,80.63
2023-02-20T09:04:45.488Z,81.28
2023-02-20T09:06:17.217Z,82.10
2023-02-20T09:07:49.066Z,80.69
2023-02-20T09:09:22.250Z,79.50
2023-02-20T09:10:54.124Z,79.09
2023-02-20T09:12:25.958Z,79.38
2023-02-20T09:13:57.684Z,78.06
2023-02-20T09:15:29.948Z,78.56
2023-02-20T09:17:05.223Z,78.69
2023-02-20T09:18:36.962Z,77.85
2023-02-20T09:20:12.514Z,77.85
2023-02-20T09:21:46.331Z,78.67
2023-02-20T09:23:18.464Z,78.22
2023-02-20T09:24:54.006Z,77.11
2023-02-20T09:26:26.864Z,77.33
2023-02-20T09:27:58.726Z,76.51
2023-02-20T09:29:30.538Z,76.34
2023-02-20T09:31:02.455Z,74.85
2023-02-20T09:32:34.554Z,74.96
2023-02-20T09:34:06.563Z,75.05
2023-02-20T09:35:38.277Z,76.21
2023-02-20T09:37:10.027Z,75.10
2023-02-20T09:38:41.787Z,74.89
2023-02-20T09:40:15.228Z,74.56
2023-02-20T09:41:57.700Z,74.42
2023-02-20T09:43:36.502Z,75.37
2023-02-20T09:45:11.029Z,74.08
2023-02-20T09:46:44.411Z,72.67
2023-02-20T09:48:22.973Z,73.09
2023-02-20T09:49:56.884Z,73.81
2023-02-20T09:51:30.411Z,73.77
2023-02-20T09:53:05.559Z,73.13
2023-02-20T09:54:38.908Z,73.47
2023-02-20T09:56:16.572Z,73.40
2023-02-20T09:57:49.767Z,72.05
2023-02-20T09:59:23.027Z,72.86
2023-02-20T10:00:56.649Z,72.80
2023-02-20T10:02:29.630Z,73.66
2023-02-20T10:04:03.059Z,72.48
2023-02-20T10:05:34.819Z,72.74
2023-02-20T10:07:15.609Z,73.43
2023-02-20T10:08:47.938Z,73.11
2023-02-20T10:10:21.216Z,71.78
2023-02-20T10:12:08.870Z,73.06
2023-02-20T10:13:52.562Z,72.64
2023-02-20T10:15:27.602Z,72.55
2023-02-20T10:17:02.673Z,72.15
2023-02-20T10:18:39.746Z,71.76
2023-02-20T10:20:15.801Z,71.76
2023-02-20T10:22:06.373Z,71.41
2023-02-20T10:23:41.290Z,71.65
2023-02-20T10:25:15.539Z,72.44
2023-02-20T10:26:48.772Z,71.63
2023-02-20T10:28:23.863Z,72.34
2023-02-20T10:30:03.365Z,71.82
2023-02-20T10:31:38.933Z,72.21
2023-02-20T10:33:17.186Z,72.27
2023-02-20T10:34:51.937Z,72.47
2023-02-20T10:36:25.423Z,71.55
2023-02-20T10:38:04.162Z,71.28
2023-02-20T10:39:36.174Z,70.36
2023-02-20T10:42:06.200Z,71.99
2023-02-20T10:47:02.548Z,70.67
2023-02-20T10:48:36.851Z,70.83
2023-02-20T10:50:12.665Z,71.15
2023-02-20T10:51:45.642Z,71.01
2023-02-20T10:53:21.339Z,71.47
2023-02-20T10:54:56.705Z,70.81
2023-02-20T10:56:31.376Z,71.05
2023-02-20T10:58:04.913Z,70.87
2023-02-20T10:59:40.377Z,71.42
2023-02-20T11:01:13.942Z,71.93
2023-02-20T11:02:46.925Z,71.43
2023-02-20T11:04:21.086Z,71.65
2023-02-20T11:05:54.435Z,71.24
2023-02-20T11:07:36.496Z,71.79
2023-02-20T11:09:17.587Z,70.28
2023-02-20T11:10:57.334Z,70.66
2023-02-20T11:12:32.815Z,71.16
2023-02-20T11:14:11.195Z,70.62
2023-02-20T11:15:50.294Z,70.80
2023-02-20T11:17:25.720Z,70.43
2023-02-20T11:19:08.170Z,69.99
2023-02-20T11:20:47.317Z,69.97
2023-02-20T11:22:40.557Z,70.27
2023-02-20T11:24:45.454Z,70.77
2023-02-20T11:26:28.002Z,70.81
2023-02-20T11:28:08.728Z,71.09
2023-02-20T11:29:42.289Z,70.61
2023-02-20T11:31:17.198Z,70.12
2023-02-20T11:32:49.020Z,70.50
2023-02-20T11:34:21.390Z,70.51
2023-02-20T11:35:53.749Z,70.63
2023-02-20T11:37:28.453Z,71.30
2023-02-20T11:39:00.650Z,70.41
2023-02-20T11:40:35.213Z,70.90
2023-02-20T11:42:11.355Z,69.50
2023-02-20T11:44:00.865Z,69.05
2023-02-20T11:45:33.976Z,69.97
2023-02-20T11:47:17.094Z,69.18
2023-02-20T11:49:00.242Z,68.17
2023-02-20T11:50:40.598Z,68.41
2023-02-20T11:52:17.228Z,68.18
2023-02-20T11:53:50.512Z,67.77
2023-02-20T11:55:23.467Z,68.30
2023-02-20T11:56:57.543Z,67.57
2023-02-20T11:58:35.219Z,67.03
2023-02-20T12:00:12.193Z,67.67
2023-02-20T12:01:52.412Z,67.34
2023-02-20T12:03:29.640Z,67.93
2023-02-20T12:05:12.379Z,67.22
2023-02-20T12:06:44.243Z,67.60
2023-02-20T12:08:34.408Z,66.57
2023-02-20T12:10:38.361Z,65.34
2023-02-20T12:12:11.500Z,66.59
2023-02-20T12:13:44.224Z,65.88
2023-02-20T12:15:16.652Z,64.85
2023-02-20T12:16:58.033Z,65.30
2023-02-20T12:18:45.561Z,65.40
2023-02-20T12:20:18.996Z,63.26
2023-02-20T12:22:00.580Z,64.96
2023-02-20T12:23:36.499Z,63.08
2023-02-20T12:25:16.018Z,63.53
2023-02-20T12:26:54.087Z,62.52
2023-02-20T12:28:27.660Z,62.52
2023-02-20T12:30:01.787Z,62.25
2023-02-20T12:31:40.148Z,62.33
2023-02-20T12:33:23.520Z,61.29
2023-02-20T12:35:21.097Z,61.26
2023-02-20T12:36:54.138Z,60.93
2023-02-20T12:38:32.818Z,62.02
2023-02-20T12:40:20.003Z,60.65
2023-02-20T12:41:59.366Z,59.70
2023-02-20T12:43:34.882Z,60.04
2023-02-20T12:45:18.386Z,59.69
2023-02-20T12:46:55.063Z,60.63
2023-02-20T12:48:32.004Z,60.79
2023-02-20T12:50:42.363Z,60.40
2023-02-20T12:52:37.746Z,59.29
2023-02-20T12:54:23.644Z,59.13
2023-02-20T12:56:02.817Z,60.25
2023-02-20T12:57:40.397Z,57.93
2023-02-20T12:59:21.519Z,58.35
2023-02-20T13:00:59.619Z,58.10
2023-02-20T13:02:41.780Z,58.39
2023-02-20T13:04:20.610Z,59.22
2023-02-20T13:05:53.712Z,54.95
2023-02-20T13:07:28.329Z,58.08
2023-02-20T13:09:04.261Z,55.16
2023-02-20T13:10:40.910Z,57.34
2023-02-20T13:12:13.838Z,56.22
2023-02-20T13:13:58.355Z,55.99
2023-02-20T13:15:35.831Z,56.58
2023-02-20T13:17:12.921Z,55.18
2023-02-20T13:18:57.804Z,53.68
2023-02-20T13:20:35.369Z,55.63
2023-02-20T13:22:17.523Z,56.34
2023-02-20T13:23:53.103Z,53.74
2023-02-20T13:25:35.342Z,55.17
2023-02-20T13:27:07.809Z,56.53
2023-02-20T13:28:46.483Z,56.37
2023-02-20T13:30:19.755Z,55.75
2023-02-20T13:31:52.271Z,56.93
2023-02-20T13:33:28.526Z,56.81
2023-02-20T13:35:33.759Z,56.60
2023-02-20T13:37:05.660Z,57.57
2023-02-20T13:38:38.597Z,54.46
2023-02-20T13:40:35.676Z,55.33
2023-02-20T13:42:29.063Z,53.91
2023-02-20T13:44:23.164Z,55.17
2023-02-20T13:46:20.404Z,55.76
2023-02-20T13:47:52.026Z,53.68
2023-02-20T13:49:57.404Z,52.92
2023-02-20T13:51:31.664Z,55.42
2023-02-20T13:53:03.891Z,55.25
2023-02-20T13:54:36.808Z,54.47
2023-02-20T13:56:14.989Z,53.12
2023-02-20T13:57:48.132Z,54.90
2023-02-20T13:59:20.276Z,52.39
2023-02-20T14:00:54.203Z,53.35
2023-02-20T14:02:30.460Z,54.32
2023-02-20T14:04:02.331Z,52.99
2023-02-20T14:05:33.937Z,54.37
2023-02-20T14:07:05.521Z,56.62
2023-02-20T14:08:38.553Z,54.40
2023-02-20T14:10:23.218Z,57.15
2023-02-20T14:11:55.962Z,56.19
2023-02-20T14:13:39.469Z,56.06
2023-02-20T14:15:11.787Z,56.77
2023-02-20T14:16:46.347Z,57.23
2023-02-20T14:18:19.433Z,57.85
2023-02-20T14:20:02.290Z,57.50
2023-02-20T14:21:40.200Z,56.97
2023-02-20T14:23:19.651Z,57.27
2023-02-20T14:25:05.170Z,56.59
2023-02-20T14:26:38.080Z,57.44
2023-02-20T14:28:14.468Z,54.47
2023-02-20T14:29:50.262Z,56.19
2023-02-20T14:31:23.516Z,56.15
2023-02-20T14:32:56.373Z,55.84
2023-02-20T14:34:30.663Z,56.71
2023-02-20T14:36:26.159Z,57.09
2023-02-20T14:38:01.224Z,56.91
2023-02-20T14:39:47.848Z,54.89
2023-02-20T14:41:20.412Z,54.94
2023-02-20T14:43:00.066Z,55.25
2023-02-20T14:44:31.987Z,56.09
2023-02-20T14:46:07.713Z,54.78
2023-02-20T14:47:50.242Z,56.48
2023-02-20T14:49:26.870Z,56.79
2023-02-20T14:51:13.352Z,56.18
2023-02-20T14:52:45.076Z,56.56
2023-02-20T14:54:19.341Z,57.48
2023-02-20T14:55:51.038Z,58.51
2023-02-20T14:57:22.666Z,58.48
2023-02-20T14:58:55.844Z,58.16
2023-02-20T15:00:34.807Z,58.93
2023-02-20T15:02:21.310Z,61.47
2023-02-20T15:04:00.746Z,59.11
2023-02-20T15:05:33.010Z,59.24
2023-02-20T15:07:05.355Z,59.14
2023-02-20T15:08:37.871Z,60.05
2023-02-20T15:10:33.555Z,59.50
2023-02-20T15:12:09.188Z,60.68
2023-02-20T15:13:41.530Z,61.22
2023-02-20T15:15:14.481Z,61.07
2023-02-20T15:16:46.138Z,61.91
2023-02-20T15:18:31.570Z,61.21
2023-02-20T15:20:16.313Z,61.47
2023-02-20T15:21:55.638Z,62.04
2023-02-20T15:23:29.134Z,61.11
2023-02-20T15:25:15.151Z,61.64
2023-02-20T15:26:47.148Z,61.45
2023-02-20T15:28:27.088Z,60.97
2023-02-20T15:30:17.694Z,61.05
2023-02-20T15:31:55.141Z,61.39
2023-02-20T15:33:26.806Z,61.38
2023-02-20T15:34:58.598Z,61.70
2023-02-20T15:36:30.271Z,62.02
2023-02-20T15:38:02.736Z,62.21
2023-02-20T15:39:39.566Z,61.75
2023-02-20T15:41:11.638Z,62.59
2023-02-20T15:42:43.402Z,61.35
2023-02-20T15:44:15.126Z,62.99
2023-02-20T15:45:48.398Z,62.30
2023-02-20T15:47:20.057Z,61.43
2023-02-20T15:48:51.743Z,62.88
2023-02-20T15:50:23.472Z,61.77
2023-02-20T15:52:01.718Z,62.64
2023-02-20T15:53:36.491Z,62.97
2023-02-20T15:55:10.163Z,64.29
2023-02-20T15:56:41.772Z,63.83
2023-02-20T15:58:23.151Z,62.29
2023-02-20T15:59:56.244Z,62.89
2023-02-20T16:01:29.370Z,63.56
2023-02-20T16:03:01.523Z,63.35
2023-02-20T16:04:33.225Z,63.90
2023-02-20T16:06:05.429Z,62.41
2023-02-20T16:07:37.062Z,62.56
2023-02-20T16:09:08.865Z,63.67
2023-02-20T16:10:40.415Z,63.10
2023-02-20T16:12:15.212Z,62.14
2023-02-20T16:13:47.278Z,62.93
2023-02-20T16:15:21.435Z,63.93
2023-02-20T16:16:54.586Z,64.60
2023-02-20T16:18:26.272Z,64.26
2023-02-20T16:19:57.845Z,63.75
2023-02-20T16:21:29.775Z,64.48
2023-02-20T16:23:01.684Z,64.42
2023-02-20T16:24:35.488Z,64.75
2023-02-20T16:26:07.111Z,64.47
2023-02-20T16:27:38.739Z,64.47
2023-02-20T16:29:15.576Z,64.63
2023-02-20T16:30:47.355Z,65.33
2023-02-20T16:32:21.945Z,65.14
2023-02-20T16:33:53.560Z,66.22
2023-02-20T16:35:25.213Z,65.54
2023-02-20T16:36:56.778Z,65.30
2023-02-20T16:38:28.382Z,66.65
2023-02-20T16:40:00.058Z,67.00
2023-02-20T16:41:32.359Z,66.85
2023-02-20T16:43:04.169Z,66.94
2023-02-20T16:44:40.331Z,66.86
2023-02-20T16:46:12.300Z,66.99
2023-02-20T16:47:46.564Z,67.34
2023-02-20T16:49:18.227Z,67.35
2023-02-20T16:50:50.725Z,67.27
2023-02-20T16:52:25.492Z,68.43
2023-02-20T16:53:57.232Z,68.92
2023-02-20T16:55:29.768Z,68.80
2023-02-20T16:57:01.401Z,69.18
2023-02-20T16:58:33.004Z,70.30
2023-02-20T17:00:06.144Z,70.04
2023-02-20T17:01:37.775Z,68.63
2023-02-20T17:03:11.100Z,70.26
2023-02-20T17:04:42.746Z,69.95
2023-02-20T17:06:17.970Z,70.66
2023-02-20T17:07:49.634Z,70.51
2023-02-20T17:09:22.102Z,70.19
2023-02-20T17:10:54.968Z,70.35
2023-02-20T17:12:38.300Z,70.65
2023-02-20T17:14:11.507Z,71.01
2023-02-20T17:15:44.524Z,71.68
2023-02-20T17:17:16.307Z,72.09
2023-02-20T17:18:49.224Z,71.78
2023-02-20T17:20:22.019Z,71.35
2023-02-20T17:21:53.621Z,71.72
2023-02-20T17:23:25.201Z,71.98
2023-02-20T17:24:56.952Z,72.15
2023-02-20T17:26:28.859Z,71.62
2023-02-20T17:28:00.463Z,71.46
2023-02-20T17:29:32.373Z,73.05
2023-02-20T17:31:04.172Z,72.55
2023-02-20T17:32:35.842Z,72.77
2023-02-20T17:34:08.931Z,72.52
2023-02-20T17:35:41.156Z,72.69
2023-02-20T17:37:12.887Z,72.87
2023-02-20T17:38:44.516Z,72.72
2023-02-20T17:40:18.498Z,71.89
2023-02-20T17:41:50.176Z,73.01
2023-02-20T17:43:21.747Z,73.63
2023-02-20T17:44:53.397Z,73.62
2023-02-20T17:46:25.047Z,74.77
2023-02-20T17:47:56.650Z,74.94
2023-02-20T17:49:29.678Z,74.29
2023-02-20T17:51:01.292Z,73.68
2023-02-20T17:52:33.354Z,74.72
2023-02-20T17:54:05.604Z,74.00
2023-02-20T17:55:37.197Z,74.56
2023-02-20T17:57:08.896Z,74.15
2023-02-20T17:58:40.571Z,73.87
2023-02-20T18:00:13.261Z,74.02
2023-02-20T18:01:47.195Z,73.80
2023-02-20T18:03:18.811Z,74.37
2023-02-20T18:04:51.814Z,74.33
2023-02-20T18:06:23.400Z,74.58
2023-02-20T18:07:55.057Z,74.38
2023-02-20T18:09:27.337Z,74.30
2023-02-20T18:11:02.014Z,74.28
2023-02-20T18:12:33.587Z,73.92
2023-02-20T18:14:06.509Z,74.19
2023-02-20T18:15:40.504Z,74.87
2023-02-20T18:17:12.410Z,74.61
2023-02-20T18:18:44.045Z,74.38
2023-02-20T18:20:18.376Z,74.48
2023-02-20T18:21:51.814Z,74.75
2023-02-20T18:23:23.447Z,74.42
2023-02-20T18:24:57.208Z,75.04
2023-02-20T18:26:28.820Z,75.13
2023-02-20T18:28:00.726Z,74.87
2023-02-20T18:29:32.412Z,74.62
2023-02-20T18:31:04.060Z,75.95
2023-02-20T18:32:37.453Z,75.85
2023-02-20T18:34:09.164Z,74.97
2023-02-20T18:35:44.108Z,75.38
2023-02-20T18:37:15.684Z,74.97
2023-02-20T18:38:47.288Z,75.04
2023-02-20T18:40:19.234Z,75.32
2023-02-20T18:41:56.879Z,75.18
2023-02-20T18:43:35.606Z,75.06
2023-02-20T18:45:15.945Z,75.04
2023-02-20T18:46:47.525Z,75.12
2023-02-20T18:48:19.129Z,75.29
2023-02-20T18:49:50.717Z,75.44
2023-02-20T18:51:31.327Z,74.89
2023-02-20T18:53:02.979Z,74.98
2023-02-20T18:54:34.571Z,75.86
2023-02-20T18:56:09.583Z,76.12
2023-02-20T18:57:41.294Z,75.75
2023-02-20T18:59:12.925Z,75.73
2023-02-20T19:00:52.646Z,75.59
2023-02-20T19:02:24.371Z,75.74
2023-02-20T19:03:56.498Z,75.60
2023-02-20T19:05:28.100Z,75.85
2023-02-20T19:07:03.476Z,75.67
2023-02-20T19:08:35.094Z,75.70
2023-02-20T19:10:07.043Z,75.68
2023-02-20T19:11:38.620Z,75.67
2023-02-20T19:13:10.201Z,76.17
2023-02-20T19:14:41.786Z,76.05
2023-02-20T19:16:13.763Z,76.27
2023-02-20T19:17:46.123Z,75.71
2023-02-20T19:19:23.452Z,75.82
2023-02-20T19:20:55.382Z,75.93
2023-02-20T19:22:29.957Z,76.31
2023-02-20T19:24:04.112Z,76.44
2023-02-20T19:25:36.168Z,76.43
2023-02-20T19:27:07.759Z,76.33
2023-02-20T19:28:42.036Z,76.01
2023-02-20T19:30:13.788Z,76.13
2023-02-20T19:31:45.583Z,76.14
2023-02-20T19:33:17.265Z,76.25
2023-02-20T19:34:49.092Z,76.29
2023-02-20T19:36:20.732Z,76.69
2023-02-20T19:37:53.724Z,76.48
2023-02-20T19:39:25.407Z,76.71
2023-02-20T19:40:56.966Z,77.21
2023-02-20T19:42:28.823Z,76.94
2023-02-20T19:44:00.480Z,76.48
2023-02-20T19:45:32.129Z,76.73
2023-02-20T19:47:03.861Z,76.69
2023-02-20T19:48:35.473Z,76.81
2023-02-20T19:50:07.358Z,77.87
2023-02-20T19:51:40.312Z,78.06
2023-02-20T19:53:13.248Z,77.00
2023-02-20T19:54:45.046Z,76.95
2023-02-20T19:56:16.606Z,77.45
2023-02-20T19:57:48.203Z,78.26
2023-02-20T19:59:19.800Z,77.67
2023-02-20T20:00:51.399Z,77.55
2023-02-20T20:02:25.222Z,78.09
2023-02-20T20:03:57.278Z,77.92
2023-02-20T20:05:28.843Z,77.81
2023-02-20T20:07:00.660Z,77.45
2023-02-20T20:08:34.685Z,77.07
2023-02-20T20:10:08.267Z,77.07
2023-02-20T20:11:39.950Z,76.82
2023-02-20T20:13:11.706Z,76.89
2023-02-20T20:14:43.367Z,76.58
2023-02-20T20:16:15.206Z,77.46
2023-02-20T20:17:47.281Z,77.18
2023-02-20T20:19:23.928Z,77.60
2023-02-20T20:20:55.910Z,77.65
2023-02-20T20:22:35.569Z,77.53
2023-02-20T20:24:10.732Z,77.39
2023-02-20T20:25:43.341Z,77.39
2023-02-20T20:27:20.705Z,77.37
2023-02-20T20:28:52.473Z,77.52